»·PEaware :: GSA250 KSEA-KGEG

GSA250 :: KSEA-KGEG

FLIGHT INFORMATION

Flight Status: Arrived
Operator:
Global Sim Alliance
More flights by this operator :: More flights under this callsign
Pilot: Anonymous 13363 (13363)
Aircraft: BOEING 737-200
(B732)
More flights by this aircraft type
Origin: KSEA Seattle-Tacoma Intl
United States
Destination: KGEG Spokane Intl
United States
More flights between these airports :: More routes between these airports
Route: +SEA J12 EPH GEG
File this flight plan on PilotEdge
Remarks: FIFE TRREEEEEE
Altitude:
(Current/Filed)
27,000ft
Speed:
(Current/Filed)
470kts
Departed: 11-Jan-18 06:53 PM
Arrived: 11-Jan-18 07:31 PM
Distance/Time
Traveled:
194nm/0:38
Distance/Time
To Go:
Arrived

Flight Plot

Page will automatically refresh every two minutes.

Flight plan parsing failed; only flown route is shown


Map Options




Map Legend


Flown Route
Filed Route
Departure Airport
Arrival Airport
Navaid (VOR, NDB)
Fix

Horizontal Profiles

Position Reports

Time Latitude Longitude Heading Altitude Ground
Speed
11-Jan-18 18:32 47.446175 -122.300267 137 335ft 0kts
11-Jan-18 18:33 47.446175 -122.300268 137 335ft 0kts
11-Jan-18 18:34 47.446175 -122.300267 137 335ft 0kts
11-Jan-18 18:35 47.446175 -122.300267 137 335ft 0kts
11-Jan-18 18:36 47.446175 -122.300267 137 335ft 0kts
11-Jan-18 18:37 47.446175 -122.300267 137 335ft 0kts
11-Jan-18 18:38 47.446175 -122.300267 137 335ft 0kts
11-Jan-18 18:39 47.446175 -122.300267 137 335ft 0kts
11-Jan-18 18:40 47.446175 -122.300267 137 335ft 0kts
11-Jan-18 18:41 47.446175 -122.300267 137 335ft 0kts
11-Jan-18 18:42 47.446175 -122.300267 137 335ft 0kts
11-Jan-18 18:43 47.446175 -122.300267 137 335ft 0kts
11-Jan-18 18:44 47.446175 -122.300267 137 335ft 0kts
11-Jan-18 18:45 47.446175 -122.300267 137 335ft 0kts
11-Jan-18 18:46 47.446175 -122.300267 137 335ft 0kts
11-Jan-18 18:47 47.446175 -122.300268 137 335ft 0kts
11-Jan-18 18:48 47.446609 -122.300786 168 335ft 2kts
11-Jan-18 18:49 47.447005 -122.300512 236 335ft 0kts
11-Jan-18 18:50 47.447004 -122.300513 236 335ft 0kts
11-Jan-18 18:51 47.447001 -122.300520 236 335ft 0kts
11-Jan-18 18:52 47.446995 -122.302854 291 335ft 7kts
11-Jan-18 18:53 47.447951 -122.304746 302 335ft 10kts
11-Jan-18 18:54 47.449591 -122.306273 0 335ft 21kts
11-Jan-18 18:55 47.456076 -122.306222 359 335ft 30kts
11-Jan-18 18:56 47.463331 -122.306110 358 335ft 15kts
11-Jan-18 18:57 47.463700 -122.306381 296 335ft 0kts
11-Jan-18 18:58 47.461845 -122.307762 181 335ft 37kts
11-Jan-18 18:59 47.428528 -122.308592 180 1185ft 160kts
11-Jan-18 19:00 47.371879 -122.309635 180 2442ft 252kts
11-Jan-18 19:01 47.302634 -122.309568 180 5496ft 260kts
11-Jan-18 19:02 47.240913 -122.270169 107 8248ft 278kts
11-Jan-18 19:03 47.266715 -122.156081 65 10574ft 322kts
11-Jan-18 19:04 47.303224 -122.033731 65 13116ft 334kts
11-Jan-18 19:05 47.343764 -121.908667 58 14716ft 358kts
11-Jan-18 19:06 47.393500 -121.776095 58 16199ft 378kts
11-Jan-18 19:07 47.426205 -121.627286 82 17860ft 390kts
11-Jan-18 19:08 47.431112 -121.466317 90 19417ft 397kts
11-Jan-18 19:09 47.429485 -121.306252 93 20773ft 403kts
11-Jan-18 19:10 47.426078 -121.140052 93 21966ft 409kts
11-Jan-18 19:11 47.422553 -120.971541 93 23045ft 415kts
11-Jan-18 19:12 47.418789 -120.799957 93 24012ft 421kts
11-Jan-18 19:13 47.414732 -120.626869 92 24888ft 428kts
11-Jan-18 19:14 47.410319 -120.449869 92 25621ft 436kts
11-Jan-18 19:15 47.405617 -120.284616 93 26238ft 443kts
11-Jan-18 19:16 47.400105 -120.101743 93 26825ft 450kts
11-Jan-18 19:17 47.394569 -119.915943 93 26960ft 466kts
11-Jan-18 19:18 47.388532 -119.722660 93 26942ft 477kts
11-Jan-18 19:19 47.381815 -119.526699 103 26932ft 478kts
11-Jan-18 19:20 47.374480 -119.340217 85 26676ft 461kts
11-Jan-18 19:21 47.390032 -119.170683 80 25532ft 454kts
11-Jan-18 19:22 47.411127 -118.989128 79 24312ft 444kts
11-Jan-18 19:23 47.432145 -118.812025 79 22871ft 435kts
11-Jan-18 19:24 47.452526 -118.638909 79 21415ft 424kts
11-Jan-18 19:25 47.471864 -118.472309 78 18367ft 405kts
11-Jan-18 19:26 47.489640 -118.316266 79 15382ft 389kts
11-Jan-18 19:27 47.505118 -118.173898 78 14231ft 336kts
11-Jan-18 19:28 47.516418 -118.039119 103 11993ft 326kts
11-Jan-18 19:29 47.461068 -117.945271 143 9625ft 299kts
11-Jan-18 19:30 47.412836 -117.868167 88 8394ft 255kts
11-Jan-18 19:31 47.448390 -117.793360 45 7152ft 228kts
11-Jan-18 19:32 47.490662 -117.729541 45 5814ft 203kts
11-Jan-18 19:33 47.524115 -117.679398 44 4838ft 173kts
11-Jan-18 19:34 47.553622 -117.635112 45 4012ft 139kts
11-Jan-18 19:35 47.581980 -117.592425 44 3215ft 153kts
11-Jan-18 19:36 47.609058 -117.551615 45 2410ft 140kts
11-Jan-18 19:37 47.626771 -117.524975 46 2368ft 39kts
11-Jan-18 19:38 47.628065 -117.527378 276 2368ft 7kts
11-Jan-18 19:39 47.627226 -117.529390 250 2368ft 2kts
11-Jan-18 19:40 47.627494 -117.529925 314 2368ft 0kts

Navigation Log

Ident Type
Flight plan parsing failed, navigation log unavailable